Time;durP1;ratioP1;P1;durP2;ratioP2;P2;SDS_P1;SDS_P2;PMS_P1;PMS_P2;Temp;Humidity;BMP_temperature;BMP_pressure;BME280_temperature;BME280_humidity;BME280_pressure;Samples;Min_cycle;Max_cycle;Signal;HPM_P1;HPM_P2
2021/07/23 00:01:01;;;;;;;;;;;;;;;20.14;93.24;99373.09;4950566;28;20038;-64
2021/07/23 00:03:26;;;;;;;;;;;;;;;20.77;88.65;99366.31;4942992;28;20407;-65
2021/07/23 00:05:52;;;;;;;;;;;;;;;20.73;88.12;99368.28;4946075;28;19915;-65
2021/07/23 00:08:17;;;;;;;;;;;;;;;21.02;85.52;99365.47;4932477;28;19965;-64
2021/07/23 00:10:43;;;;;;;;;;;;;;;21.54;83.15;99366.22;4950238;28;19926;-65
2021/07/23 00:13:08;;;;;;;;;;;;;;;21.81;81.16;99363.41;4950909;28;20373;-64
2021/07/23 00:15:34;;;;;;;;;;;;;;;21.68;80.70;99369.53;4950927;29;19925;-64
2021/07/23 00:17:59;;;;;;;;;;;;;;;21.03;83.08;99367.16;4948746;29;19958;-64
2021/07/23 00:20:25;;;;;;;;;;;;;;;20.83;83.65;99366.72;4951105;28;19969;-64
2021/07/23 00:22:50;;;;;;;;;;;;;;;20.62;88.58;99368.22;4950988;28;20344;-65
2021/07/23 00:25:16;;;;;;;;;;;;;;;20.36;88.87;99369.91;4947700;28;20440;-64
2021/07/23 00:27:41;;;;;;;;;;;;;;;20.14;92.62;99370.47;4951263;28;20458;-64
2021/07/23 00:30:07;;;;;;;;;;;;;;;20.01;93.38;99362.63;4950661;29;19918;-64
2021/07/23 00:32:36;;;;;;;;;;;;;;;19.98;93.66;99365.41;4948521;29;19919;-65
2021/07/23 00:35:01;;;;;;;;;;;;;;;20.32;91.13;99364.06;4944637;28;19930;-64
2021/07/23 00:37:27;;;;;;;;;;;;;;;20.48;88.81;99367.31;4947546;28;19919;-65
2021/07/23 00:39:52;;;;;;;;;;;;;;;20.16;89.64;99363.38;4940064;29;19918;-65
2021/07/23 00:42:18;;;;;;;;;;;;;;;20.24;89.58;99361.09;4938519;28;19919;-64
2021/07/23 00:44:44;;;;;;;;;;;;;;;19.90;93.06;99359.88;4950365;28;19942;-65
2021/07/23 00:47:09;;;;;;;;;;;;;;;20.32;87.41;99366.69;4947894;28;19915;-64
2021/07/23 00:49:35;;;;;;;;;;;;;;;20.83;84.37;99369.34;4947533;28;20013;-64
2021/07/23 00:52:00;;;;;;;;;;;;;;;20.84;84.38;99365.78;4935102;28;19915;-65
2021/07/23 00:54:25;;;;;;;;;;;;;;;20.53;86.24;99353.09;4932044;28;19997;-64
2021/07/23 00:56:51;;;;;;;;;;;;;;;20.34;87.64;99359.53;4934218;28;20670;-64
2021/07/23 00:59:16;;;;;;;;;;;;;;;20.37;86.20;99361.97;4938323;28;19988;-64
2021/07/23 01:01:42;;;;;;;;;;;;;;;20.52;84.98;99354.03;4938739;28;20338;-64
2021/07/23 01:04:08;;;;;;;;;;;;;;;20.74;82.63;99356.06;4937160;28;19919;-64
2021/07/23 01:06:33;;;;;;;;;;;;;;;20.65;82.80;99360.13;4941875;28;19965;-64
2021/07/23 01:08:59;;;;;;;;;;;;;;;20.22;88.64;99355.13;4947682;28;19915;-64
2021/07/23 01:11:24;;;;;;;;;;;;;;;20.40;87.29;99356.53;4946349;28;20552;-64
2021/07/23 01:13:50;;;;;;;;;;;;;;;20.65;86.03;99358.34;4948785;28;20455;-64
2021/07/23 01:16:15;;;;;;;;;;;;;;;20.44;84.35;99363.22;4936067;28;20496;-64
2021/07/23 01:18:42;;;;;;;;;;;;;;;20.23;87.08;99364.63;4963806;28;19919;-64
2021/07/23 01:21:07;;;;;;;;;;;;;;;20.06;88.20;99353.53;4952040;28;19986;-64
2021/07/23 01:23:33;;;;;;;;;;;;;;;20.37;86.05;99356.75;4943636;28;19914;-64
2021/07/23 01:25:59;;;;;;;;;;;;;;;20.18;85.93;99358.88;4939898;28;19975;-64
2021/07/23 01:28:28;;;;;;;;;;;;;;;20.18;86.04;99358.88;4946821;28;19922;-64
2021/07/23 01:30:53;;;;;;;;;;;;;;;20.25;86.80;99354.91;4946774;28;19969;-64
2021/07/23 01:33:19;;;;;;;;;;;;;;;20.51;86.39;99347.13;4943583;28;19922;-64
2021/07/23 01:35:44;;;;;;;;;;;;;;;20.67;84.09;99350.41;4947930;28;20468;-65
2021/07/23 01:38:09;;;;;;;;;;;;;;;20.65;82.78;99352.28;4940488;28;19950;-64
2021/07/23 01:40:35;;;;;;;;;;;;;;;20.71;85.19;99349.25;4937324;28;20277;-64
2021/07/23 01:43:00;;;;;;;;;;;;;;;20.66;85.25;99348.72;4951983;28;19914;-64
2021/07/23 01:45:26;;;;;;;;;;;;;;;20.54;83.90;99349.53;4965513;28;20400;-64
2021/07/23 01:47:53;;;;;;;;;;;;;;;20.62;85.84;99347.28;4952193;28;20010;-64
2021/07/23 01:50:18;;;;;;;;;;;;;;;20.47;84.42;99339.47;4948595;28;19915;-64
2021/07/23 01:52:44;;;;;;;;;;;;;;;20.41;86.17;99350.38;4950142;28;19914;-65
2021/07/23 01:55:09;;;;;;;;;;;;;;;20.38;85.93;99344.50;4946272;28;19949;-64
2021/07/23 01:57:35;;;;;;;;;;;;;;;20.37;82.65;99342.84;4949772;28;20637;-64
2021/07/23 02:00:01;;;;;;;;;;;;;;;20.40;84.54;99348.69;4946159;28;20434;-65
2021/07/23 02:02:26;;;;;;;;;;;;;;;20.21;84.21;99343.00;4948343;28;19914;-64
2021/07/23 02:04:51;;;;;;;;;;;;;;;20.16;83.88;99345.06;4945661;28;19915;-64
2021/07/23 02:07:17;;;;;;;;;;;;;;;20.14;85.56;99336.50;4948121;28;19957;-64
2021/07/23 02:09:42;;;;;;;;;;;;;;;20.27;84.71;99334.75;4940942;28;19926;-64
2021/07/23 02:12:09;;;;;;;;;;;;;;;20.32;83.93;99345.75;4938435;28;20456;-65
2021/07/23 02:14:34;;;;;;;;;;;;;;;20.16;85.67;99339.84;4950988;28;20536;-64
2021/07/23 02:16:59;;;;;;;;;;;;;;;19.96;87.24;99336.78;4951337;28;20009;-64
2021/07/23 02:19:25;;;;;;;;;;;;;;;20.16;85.59;99338.09;4944852;28;20365;-64
2021/07/23 02:21:50;;;;;;;;;;;;;;;19.80;82.80;99336.94;4950841;28;19914;-64
2021/07/23 02:24:16;;;;;;;;;;;;;;;19.93;87.31;99339.56;4949408;28;19921;-64
2021/07/23 02:26:41;;;;;;;;;;;;;;;20.07;84.59;99330.84;4944816;28;19915;-64
2021/07/23 02:29:06;;;;;;;;;;;;;;;20.24;85.80;99330.56;4951061;28;19945;-64
2021/07/23 02:31:32;;;;;;;;;;;;;;;20.23;83.47;99331.50;4944072;28;20644;-64
2021/07/23 02:33:57;;;;;;;;;;;;;;;20.18;83.11;99327.50;4943411;28;20315;-64
2021/07/23 02:36:23;;;;;;;;;;;;;;;20.08;82.04;99323.84;4949157;28;19926;-64
2021/07/23 02:38:48;;;;;;;;;;;;;;;20.20;83.18;99330.84;4947469;28;19914;-64
2021/07/23 02:41:13;;;;;;;;;;;;;;;20.14;85.08;99321.66;4947150;28;20521;-64
2021/07/23 02:43:39;;;;;;;;;;;;;;;20.13;84.68;99324.38;4941739;28;19918;-64
2021/07/23 02:46:04;;;;;;;;;;;;;;;19.94;84.34;99322.97;4946249;28;19914;-64
2021/07/23 02:48:30;;;;;;;;;;;;;;;19.92;85.80;99324.84;4964583;28;19914;-65
2021/07/23 02:50:55;;;;;;;;;;;;;;;19.94;83.12;99320.34;4950610;28;19919;-64
2021/07/23 02:53:21;;;;;;;;;;;;;;;19.97;84.70;99314.91;4942688;28;20025;-64
2021/07/23 02:55:49;;;;;;;;;;;;;;;19.88;79.84;99320.75;4946821;28;20324;-64
2021/07/23 02:58:15;;;;;;;;;;;;;;;19.81;81.70;99319.47;4939613;28;19930;-64
2021/07/23 03:00:40;;;;;;;;;;;;;;;19.79;81.04;99314.34;4944351;29;19998;-64
2021/07/23 03:03:05;;;;;;;;;;;;;;;19.71;82.35;99307.97;4945702;28;20065;-64
2021/07/23 03:05:31;;;;;;;;;;;;;;;19.53;86.50;99305.56;4948950;28;19919;-64
2021/07/23 03:07:56;;;;;;;;;;;;;;;19.18;89.68;99306.03;4940407;28;19915;-64
2021/07/23 03:10:22;;;;;;;;;;;;;;;19.09;89.75;99309.22;4938445;28;20293;-64
2021/07/23 03:12:47;;;;;;;;;;;;;;;19.26;87.05;99305.53;4949095;28;19921;-64
2021/07/23 03:15:12;;;;;;;;;;;;;;;19.27;87.22;99299.34;4939032;28;20440;-64
2021/07/23 03:17:38;;;;;;;;;;;;;;;19.38;85.37;99301.28;4948592;28;20222;-64
2021/07/23 03:20:03;;;;;;;;;;;;;;;18.93;89.54;99305.84;4943697;28;20923;-64
2021/07/23 03:22:29;;;;;;;;;;;;;;;19.37;87.34;99294.41;4949389;28;19914;-64
2021/07/23 03:24:55;;;;;;;;;;;;;;;19.18;87.97;99299.94;4946114;28;19978;-64
2021/07/23 03:27:20;;;;;;;;;;;;;;;19.32;85.08;99291.25;4948213;28;19921;-64
2021/07/23 03:29:46;;;;;;;;;;;;;;;19.42;85.92;99287.13;4947439;28;19914;-64
2021/07/23 03:32:11;;;;;;;;;;;;;;;19.44;83.80;99283.47;4947655;28;19921;-64
2021/07/23 03:34:36;;;;;;;;;;;;;;;19.36;86.79;99287.50;4947196;28;19953;-64
2021/07/23 03:37:02;;;;;;;;;;;;;;;19.16;82.33;99280.94;4946187;28;19958;-64
2021/07/23 03:39:27;;;;;;;;;;;;;;;19.38;85.46;99290.84;4947141;28;19915;-65
2021/07/23 03:41:53;;;;;;;;;;;;;;;19.33;85.44;99296.38;4946325;28;20029;-64
2021/07/23 03:44:18;;;;;;;;;;;;;;;19.26;85.80;99289.84;4946068;28;20561;-64
2021/07/23 03:46:43;;;;;;;;;;;;;;;19.31;84.66;99294.78;4947021;28;19950;-64
2021/07/23 03:49:09;;;;;;;;;;;;;;;19.02;87.64;99295.69;4945260;28;20419;-65
2021/07/23 03:51:34;;;;;;;;;;;;;;;18.92;85.35;99293.75;4943523;28;20369;-64
2021/07/23 03:54:00;;;;;;;;;;;;;;;19.17;86.97;99288.66;4944304;28;19915;-65
2021/07/23 03:56:25;;;;;;;;;;;;;;;19.08;84.11;99289.25;4946416;28;20389;-64
2021/07/23 03:58:51;;;;;;;;;;;;;;;18.88;82.02;99293.06;4929235;29;20516;-64
2021/07/23 04:01:17;;;;;;;;;;;;;;;19.11;83.59;99289.06;4945600;28;19919;-64
2021/07/23 04:03:42;;;;;;;;;;;;;;;18.97;80.84;99291.69;4948324;28;20381;-64
2021/07/23 04:06:07;;;;;;;;;;;;;;;19.06;85.11;99293.72;4945803;28;20393;-64
2021/07/23 04:08:34;;;;;;;;;;;;;;;18.96;89.11;99293.47;4944956;28;19919;-64
2021/07/23 04:10:59;;;;;;;;;;;;;;;19.06;85.13;99290.28;4945549;28;19914;-65
2021/07/23 04:13:25;;;;;;;;;;;;;;;19.09;86.15;99290.06;4943431;28;20579;-64
2021/07/23 04:15:50;;;;;;;;;;;;;;;19.07;87.84;99286.72;4943671;28;19919;-65
2021/07/23 04:18:16;;;;;;;;;;;;;;;19.10;87.31;99287.38;4943529;28;19993;-65
2021/07/23 04:20:41;;;;;;;;;;;;;;;19.11;88.45;99285.59;4938902;28;19978;-65
2021/07/23 04:23:07;;;;;;;;;;;;;;;19.14;88.41;99282.81;4942028;28;20291;-65
2021/07/23 04:25:32;;;;;;;;;;;;;;;19.13;85.02;99284.56;4942258;28;20009;-64
2021/07/23 04:27:58;;;;;;;;;;;;;;;19.16;85.16;99279.16;4946500;28;20001;-64
2021/07/23 04:30:24;;;;;;;;;;;;;;;19.04;88.05;99285.13;4944445;28;19930;-64
2021/07/23 04:32:49;;;;;;;;;;;;;;;19.25;87.63;99284.72;4945060;28;19919;-64
2021/07/23 04:35:15;;;;;;;;;;;;;;;18.98;85.41;99280.31;4943962;28;19911;-64
2021/07/23 04:37:40;;;;;;;;;;;;;;;17.40;96.61;99272.13;4948427;28;19914;-64
2021/07/23 04:40:06;;;;;;;;;;;;;;;17.38;100.00;99276.63;4946834;28;19914;-64
2021/07/23 04:42:32;;;;;;;;;;;;;;;18.54;93.99;99273.41;4942120;28;19915;-64
2021/07/23 04:44:57;;;;;;;;;;;;;;;18.03;98.20;99279.00;4942519;28;19914;-64
2021/07/23 04:47:22;;;;;;;;;;;;;;;18.76;93.89;99273.78;4941821;28;19918;-65
2021/07/23 04:49:48;;;;;;;;;;;;;;;18.88;94.10;99279.19;4936692;28;19906;-65
2021/07/23 04:52:16;;;;;;;;;;;;;;;19.12;94.78;99282.06;4947122;29;19922;-64
2021/07/23 04:54:42;;;;;;;;;;;;;;;19.31;85.54;99284.34;4949957;28;19918;-66
2021/07/23 04:57:13;;;;;;;;;;;;;;;18.46;100.00;99276.47;4949380;28;20348;-66
2021/07/23 04:59:38;;;;;;;;;;;;;;;18.79;94.11;99280.59;4942451;28;19918;-66
2021/07/23 05:02:04;;;;;;;;;;;;;;;19.08;95.35;99289.25;4942956;28;20291;-64
2021/07/23 05:04:29;;;;;;;;;;;;;;;19.50;90.59;99282.25;4940599;28;20065;-63
2021/07/23 05:06:55;;;;;;;;;;;;;;;19.72;94.52;99278.25;4944485;28;20001;-63
2021/07/23 05:09:20;;;;;;;;;;;;;;;19.73;92.22;99291.25;4938460;28;19919;-65
2021/07/23 05:11:45;;;;;;;;;;;;;;;19.85;93.07;99284.38;4940929;28;19966;-65
2021/07/23 05:14:11;;;;;;;;;;;;;;;19.79;81.83;99277.75;4941258;28;19922;-65
2021/07/23 05:16:36;;;;;;;;;;;;;;;20.01;91.07;99285.03;4944185;28;20317;-64
2021/07/23 05:19:03;;;;;;;;;;;;;;;20.15;91.25;99285.88;4946993;28;20384;-63
2021/07/23 05:21:28;;;;;;;;;;;;;;;20.11;84.33;99284.41;4942236;28;20005;-66
2021/07/23 05:23:54;;;;;;;;;;;;;;;19.33;93.43;99285.09;4941441;28;20432;-64
2021/07/23 05:26:19;;;;;;;;;;;;;;;19.19;94.88;99285.97;4948065;28;20396;-64
2021/07/23 05:28:44;;;;;;;;;;;;;;;19.76;91.86;99279.75;4968439;28;19915;-62
2021/07/23 05:31:10;;;;;;;;;;;;;;;19.81;91.44;99282.88;4952984;28;20131;-65
2021/07/23 05:33:35;;;;;;;;;;;;;;;19.95;84.83;99277.56;4950149;28;19918;-64
2021/07/23 05:36:01;;;;;;;;;;;;;;;19.39;94.25;99277.69;4944071;28;20470;-64
2021/07/23 05:38:26;;;;;;;;;;;;;;;19.68;93.64;99276.75;4944729;28;19978;-64
2021/07/23 05:40:51;;;;;;;;;;;;;;;20.24;92.42;99275.63;4924894;29;19914;-64
2021/07/23 05:43:17;;;;;;;;;;;;;;;20.13;90.93;99270.28;4945149;28;20363;-64
2021/07/23 05:45:43;;;;;;;;;;;;;;;19.98;89.54;99269.56;4950048;28;19918;-64
2021/07/23 05:48:08;;;;;;;;;;;;;;;20.27;87.49;99279.81;4947409;28;20465;-64
2021/07/23 05:50:34;;;;;;;;;;;;;;;19.93;92.75;99276.00;4945803;28;19941;-65
2021/07/23 05:52:59;;;;;;;;;;;;;;;19.96;91.63;99287.09;4952230;28;19987;-64
2021/07/23 05:55:25;;;;;;;;;;;;;;;20.35;92.81;99288.00;4946275;28;19914;-64
2021/07/23 05:57:50;;;;;;;;;;;;;;;20.66;86.25;99280.69;4951606;28;19923;-63
2021/07/23 06:00:15;;;;;;;;;;;;;;;19.91;95.30;99281.34;4943139;28;19918;-63
2021/07/23 06:02:41;;;;;;;;;;;;;;;20.32;88.10;99288.22;4948169;28;19969;-62
2021/07/23 06:05:07;;;;;;;;;;;;;;;20.48;87.83;99286.22;4947001;28;19915;-62
2021/07/23 06:07:32;;;;;;;;;;;;;;;20.85;86.40;99283.69;4947745;28;19914;-63
2021/07/23 06:09:57;;;;;;;;;;;;;;;21.08;85.62;99281.25;4950666;28;20367;-63
2021/07/23 06:12:23;;;;;;;;;;;;;;;20.40;94.52;99280.66;4952133;28;19922;-63
2021/07/23 06:14:48;;;;;;;;;;;;;;;20.24;91.69;99280.88;4945656;28;19970;-63
2021/07/23 06:17:14;;;;;;;;;;;;;;;20.66;89.12;99280.69;4943145;28;20448;-63
2021/07/23 06:19:39;;;;;;;;;;;;;;;21.28;85.02;99278.03;4941600;28;19929;-66
2021/07/23 06:22:05;;;;;;;;;;;;;;;21.21;86.29;99279.44;4941856;28;19914;-66
2021/07/23 06:24:31;;;;;;;;;;;;;;;20.85;88.66;99280.25;4941963;28;20002;-66
2021/07/23 06:26:56;;;;;;;;;;;;;;;19.46;99.87;99283.38;4951064;28;19926;-62
2021/07/23 06:29:22;;;;;;;;;;;;;;;20.91;89.08;99281.59;4946036;28;19914;-63
2021/07/23 06:31:48;;;;;;;;;;;;;;;20.78;88.33;99279.84;4947750;28;19914;-63
2021/07/23 06:34:14;;;;;;;;;;;;;;;21.99;82.57;99272.91;4947321;28;19918;-63
2021/07/23 06:36:39;;;;;;;;;;;;;;;22.28;80.99;99277.75;4952098;28;20005;-62
2021/07/23 06:39:04;;;;;;;;;;;;;;;21.95;82.68;99275.88;4951705;28;19921;-62
2021/07/23 06:41:30;;;;;;;;;;;;;;;21.06;88.33;99289.19;4946987;28;19921;-63
2021/07/23 06:43:55;;;;;;;;;;;;;;;21.22;86.64;99283.72;4955437;28;19922;-62
2021/07/23 06:46:21;;;;;;;;;;;;;;;21.02;89.19;99292.97;4942650;28;20381;-62
2021/07/23 06:48:47;;;;;;;;;;;;;;;21.23;92.31;99285.41;4948217;28;19915;-62
2021/07/23 06:51:13;;;;;;;;;;;;;;;22.52;80.56;99275.03;4952283;29;19915;-62
2021/07/23 06:53:39;;;;;;;;;;;;;;;22.00;81.95;99282.41;4952554;28;19921;-62
2021/07/23 06:56:05;;;;;;;;;;;;;;;21.90;88.08;99284.06;4953093;28;20365;-62
2021/07/23 06:58:30;;;;;;;;;;;;;;;21.21;88.19;99286.44;4950567;28;19933;-63
2021/07/23 07:00:56;;;;;;;;;;;;;;;21.02;88.79;99286.91;4942921;29;19922;-62
2021/07/23 07:03:21;;;;;;;;;;;;;;;21.94;88.09;99288.13;4941558;28;19923;-62
2021/07/23 07:05:50;;;;;;;;;;;;;;;21.90;89.35;99284.06;4947443;29;19914;-63
2021/07/23 07:08:16;;;;;;;;;;;;;;;20.86;91.99;99297.63;4942271;28;20275;-63
2021/07/23 07:10:41;;;;;;;;;;;;;;;20.36;98.66;99294.88;4947965;28;19914;-63
2021/07/23 07:13:06;;;;;;;;;;;;;;;21.36;94.89;99302.84;4944673;28;19921;-62
2021/07/23 07:15:32;;;;;;;;;;;;;;;21.47;84.26;99308.19;4938833;28;20324;-63
2021/07/23 07:17:57;;;;;;;;;;;;;;;21.99;86.05;99295.66;4951950;28;20656;-63
2021/07/23 07:20:23;;;;;;;;;;;;;;;21.21;91.30;99303.00;4949322;29;19922;-62
2021/07/23 07:22:48;;;;;;;;;;;;;;;22.04;86.79;99301.41;4946350;28;19918;-62
2021/07/23 07:25:14;;;;;;;;;;;;;;;22.42;80.55;99305.56;4945727;28;19915;-63
2021/07/23 07:27:39;;;;;;;;;;;;;;;22.59;82.59;99296.41;4951055;28;20021;-62
2021/07/23 07:30:05;;;;;;;;;;;;;;;22.26;91.60;99305.88;4938758;29;19914;-62
2021/07/23 07:32:30;;;;;;;;;;;;;;;22.46;82.05;99302.56;4944698;28;19914;-62
2021/07/23 07:34:56;;;;;;;;;;;;;;;22.13;83.73;99295.47;4951542;28;20283;-62
2021/07/23 07:37:21;;;;;;;;;;;;;;;21.72;90.51;99294.97;4949989;28;20021;-62
2021/07/23 07:39:46;;;;;;;;;;;;;;;23.61;74.97;99294.50;4951460;28;20395;-63
2021/07/23 07:42:12;;;;;;;;;;;;;;;22.63;82.08;99297.84;4939248;28;20281;-63
2021/07/23 07:44:37;;;;;;;;;;;;;;;24.59;73.20;99302.16;4938920;28;19915;-65
2021/07/23 07:47:02;;;;;;;;;;;;;;;24.69;69.98;99292.50;4937124;28;19933;-65
2021/07/23 07:49:28;;;;;;;;;;;;;;;24.24;73.71;99297.22;4937336;28;19923;-64
2021/07/23 07:51:53;;;;;;;;;;;;;;;24.94;71.78;99287.75;4944029;28;19918;-65
2021/07/23 07:54:18;;;;;;;;;;;;;;;23.88;77.42;99292.28;4950064;28;20433;-64
2021/07/23 07:56:44;;;;;;;;;;;;;;;25.20;69.01;99294.25;4950023;28;19919;-64
2021/07/23 07:59:09;;;;;;;;;;;;;;;24.53;73.73;99300.03;4945912;28;19918;-65
2021/07/23 08:01:35;;;;;;;;;;;;;;;24.18;69.82;99286.25;4943674;29;20273;-65
2021/07/23 08:04:03;;;;;;;;;;;;;;;24.38;74.53;99296.88;4936399;29;22008;-65
2021/07/23 08:06:37;;;;;;;;;;;;;;;23.66;81.33;99290.53;4950168;29;20468;-65
2021/07/23 08:09:05;;;;;;;;;;;;;;;21.79;90.48;99300.59;4945923;28;19919;-65
2021/07/23 08:11:32;;;;;;;;;;;;;;;23.54;80.16;99288.91;4944548;28;19969;-65
2021/07/23 08:13:57;;;;;;;;;;;;;;;24.34;75.24;99287.59;4938886;28;19921;-65
2021/07/23 08:16:23;;;;;;;;;;;;;;;24.45;73.26;99289.28;4948183;28;19941;-65
2021/07/23 08:18:48;;;;;;;;;;;;;;;23.54;79.50;99288.91;4953946;28;19969;-65
2021/07/23 08:21:13;;;;;;;;;;;;;;;23.39;83.13;99283.91;4948419;28;20470;-64
2021/07/23 08:23:39;;;;;;;;;;;;;;;24.06;73.35;99278.53;4932638;28;19985;-65
2021/07/23 08:26:04;;;;;;;;;;;;;;;24.23;74.91;99285.03;4942904;28;19995;-65
2021/07/23 08:28:31;;;;;;;;;;;;;;;23.17;78.33;99276.09;4947254;28;20005;-65
2021/07/23 08:30:57;;;;;;;;;;;;;;;22.48;81.75;99279.69;4939881;28;19919;-64
2021/07/23 08:33:22;;;;;;;;;;;;;;;25.45;71.44;99281.50;4936778;28;19926;-65
2021/07/23 08:35:48;;;;;;;;;;;;;;;24.48;67.06;99274.13;4941254;28;19922;-65
2021/07/23 08:38:13;;;;;;;;;;;;;;;24.26;65.12;99280.31;4937438;28;19965;-65
2021/07/23 08:40:39;;;;;;;;;;;;;;;24.78;67.58;99275.06;4945013;28;19919;-65
2021/07/23 08:43:04;;;;;;;;;;;;;;;24.16;69.41;99274.19;4944382;28;20034;-65
2021/07/23 08:45:30;;;;;;;;;;;;;;;24.24;68.51;99273.53;4941371;28;19954;-65
2021/07/23 08:47:56;;;;;;;;;;;;;;;23.28;72.44;99272.59;4963095;28;20296;-65
2021/07/23 08:50:22;;;;;;;;;;;;;;;24.15;66.37;99261.97;4944758;28;20391;-65
2021/07/23 08:52:50;;;;;;;;;;;;;;;26.55;63.40;99252.09;4944960;28;19926;-65
2021/07/23 08:55:16;;;;;;;;;;;;;;;24.41;70.22;99260.59;4947389;28;19958;-64
2021/07/23 08:57:42;;;;;;;;;;;;;;;24.61;68.26;99258.94;4947283;28;19965;-65
2021/07/23 09:00:07;;;;;;;;;;;;;;;26.08;64.99;99260.81;4951608;28;19972;-65
2021/07/23 09:02:51;;;;;;;;;;;;;;;25.24;64.17;99268.41;4945612;28;20458;-65
2021/07/23 09:05:17;;;;;;;;;;;;;;;25.87;63.20;99266.25;4948137;28;19925;-65
2021/07/23 09:07:42;;;;;;;;;;;;;;;25.66;59.59;99262.91;4948158;28;20009;-65
2021/07/23 09:10:08;;;;;;;;;;;;;;;26.71;55.58;99262.03;4946152;28;19980;-65
2021/07/23 09:12:41;;;;;;;;;;;;;;;24.90;64.38;99262.63;4950989;28;19926;-65
2021/07/23 09:15:17;;;;;;;;;;;;;;;26.25;52.28;99259.25;4948010;28;19952;-65
2021/07/23 09:17:42;;;;;;;;;;;;;;;27.48;55.57;99252.84;4951707;28;20418;-65
2021/07/23 09:20:08;;;;;;;;;;;;;;;28.92;45.96;99249.78;4939198;28;19966;-65
2021/07/23 09:23:02;;;;;;;;;;;;;;;26.72;54.67;99257.59;4952205;28;19929;-65
2021/07/23 09:25:33;;;;;;;;;;;;;;;27.85;50.62;99246.56;4938780;28;20652;-65
2021/07/23 09:27:59;;;;;;;;;;;;;;;26.40;50.58;99243.78;4950015;28;20018;-65
2021/07/23 09:30:35;;;;;;;;;;;;;;;28.33;53.45;99245.22;4944951;28;20348;-65
2021/07/23 09:33:00;;;;;;;;;;;;;;;27.44;54.89;99240.88;4953868;28;19918;-65
2021/07/23 09:35:25;;;;;;;;;;;;;;;26.57;49.58;99239.59;4942945;28;19918;-65
2021/07/23 09:37:52;;;;;;;;;;;;;;;27.49;54.36;99237.78;4939178;28;19918;-65
2021/07/23 09:40:17;;;;;;;;;;;;;;;27.26;53.30;99237.41;4951488;28;20004;-65
2021/07/23 09:42:43;;;;;;;;;;;;;;;28.64;47.04;99236.78;4947087;28;20053;-65
2021/07/23 09:45:08;;;;;;;;;;;;;;;27.54;47.63;99241.63;4934962;28;20440;-65
2021/07/23 09:47:34;;;;;;;;;;;;;;;25.45;60.03;99237.53;4942726;28;20514;-65
2021/07/23 09:50:00;;;;;;;;;;;;;;;28.29;46.91;99229.78;4944302;28;19950;-65
2021/07/23 09:52:25;;;;;;;;;;;;;;;29.82;45.95;99226.09;4937407;28;19918;-65
2021/07/23 09:54:51;;;;;;;;;;;;;;;28.53;46.23;99221.16;4935849;28;19978;-64
2021/07/23 09:57:16;;;;;;;;;;;;;;;28.66;43.34;99221.53;4938453;28;19929;-64
2021/07/23 09:59:46;;;;;;;;;;;;;;;28.07;47.86;99217.91;4951408;28;20392;-65
2021/07/23 10:02:20;;;;;;;;;;;;;;;30.78;44.89;99214.53;4947288;28;20427;-65
2021/07/23 10:05:06;;;;;;;;;;;;;;;28.56;47.41;99218.19;4935688;28;19923;-65
2021/07/23 10:07:45;;;;;;;;;;;;;;;28.15;43.32;99221.44;4935245;28;20498;-65
2021/07/23 10:10:13;;;;;;;;;;;;;;;28.06;49.77;99213.59;4945734;28;19997;-64
2021/07/23 10:12:40;;;;;;;;;;;;;;;27.38;52.66;99212.41;4940995;28;19929;-64
2021/07/23 10:15:06;;;;;;;;;;;;;;;29.85;40.56;99209.00;4937712;28;19973;-66
2021/07/23 10:17:31;;;;;;;;;;;;;;;28.20;43.01;99217.50;4946000;28;19919;-65
2021/07/23 10:19:57;;;;;;;;;;;;;;;28.81;44.66;99211.16;4919778;29;19919;-65
2021/07/23 10:22:23;;;;;;;;;;;;;;;30.74;39.64;99209.75;4948283;28;20288;-66
2021/07/23 10:24:49;;;;;;;;;;;;;;;29.76;42.87;99210.81;4922408;28;20376;-66
2021/07/23 10:27:14;;;;;;;;;;;;;;;31.51;39.21;99206.31;4946725;28;19914;-65
2021/07/23 10:29:50;;;;;;;;;;;;;;;29.10;43.99;99210.78;4942774;28;19914;-65
2021/07/23 10:32:27;;;;;;;;;;;;;;;27.91;50.37;99203.56;4941574;28;20416;-66
2021/07/23 10:34:53;;;;;;;;;;;;;;;29.70;44.03;99193.75;4950430;28;19914;-65
2021/07/23 10:37:31;;;;;;;;;;;;;;;30.09;41.20;99189.53;4963276;28;20464;-65
2021/07/23 10:40:23;;;;;;;;;;;;;;;29.01;43.65;99190.47;4948497;28;19921;-65
2021/07/23 10:42:48;;;;;;;;;;;;;;;28.56;42.48;99189.88;4940232;28;19926;-65
2021/07/23 10:45:24;;;;;;;;;;;;;;;30.90;41.52;99182.25;4945604;28;19918;-65
2021/07/23 10:47:50;;;;;;;;;;;;;;;31.77;39.04;99182.78;4966185;28;19956;-65
2021/07/23 10:50:24;;;;;;;;;;;;;;;30.00;39.18;99175.44;4939125;28;19970;-65
2021/07/23 10:52:50;;;;;;;;;;;;;;;31.73;42.99;99172.69;4935857;28;19921;-65
2021/07/23 10:55:20;;;;;;;;;;;;;;;32.44;35.94;99173.88;4939226;28;19993;-66
2021/07/23 10:58:08;;;;;;;;;;;;;;;31.84;34.65;99174.88;4933872;28;19945;-65
2021/07/23 11:00:46;;;;;;;;;;;;;;;29.18;40.65;99171.00;4926616;28;19914;-65
2021/07/23 11:03:30;;;;;;;;;;;;;;;32.61;39.00;99173.72;4942071;28;19915;-65
2021/07/23 11:05:55;;;;;;;;;;;;;;;30.44;43.70;99167.84;4939345;28;19914;-65
2021/07/23 11:08:21;;;;;;;;;;;;;;;31.84;40.35;99164.22;4941208;28;19920;-65
2021/07/23 11:10:51;;;;;;;;;;;;;;;32.45;37.10;99162.19;4938019;28;20040;-65
2021/07/23 11:13:17;;;;;;;;;;;;;;;29.85;47.30;99163.84;4940774;28;19932;-65
2021/07/23 11:15:42;;;;;;;;;;;;;;;30.31;45.02;99156.97;4950058;28;19931;-65
2021/07/23 11:18:13;;;;;;;;;;;;;;;28.09;49.77;99157.69;4950066;28;19946;-65
2021/07/23 11:20:38;;;;;;;;;;;;;;;27.18;48.84;99150.03;4949634;28;20368;-65
2021/07/23 11:23:04;;;;;;;;;;;;;;;28.88;43.34;99151.22;4943118;28;19969;-65
2021/07/23 11:25:30;;;;;;;;;;;;;;;29.91;45.05;99142.75;4941830;28;19943;-66
2021/07/23 11:27:58;;;;;;;;;;;;;;;31.23;44.19;99142.97;4941842;28;20005;-65
2021/07/23 11:30:25;;;;;;;;;;;;;;;30.47;38.15;99144.56;4939532;28;19944;-65
2021/07/23 11:32:55;;;;;;;;;;;;;;;29.98;43.21;99149.03;4948032;28;19998;-65
2021/07/23 11:35:21;;;;;;;;;;;;;;;31.95;40.10;99150.44;4938494;29;19942;-65
2021/07/23 11:37:47;;;;;;;;;;;;;;;32.77;34.62;99149.47;4950127;28;19922;-66
2021/07/23 11:40:14;;;;;;;;;;;;;;;33.27;34.71;99134.38;4946788;28;19921;-66
2021/07/23 11:42:40;;;;;;;;;;;;;;;32.82;37.15;99139.09;4942742;28;19915;-65
2021/07/23 11:45:06;;;;;;;;;;;;;;;29.97;40.93;99134.13;4936199;28;19965;-65
2021/07/23 11:47:32;;;;;;;;;;;;;;;30.66;40.42;99127.38;4941028;28;19915;-65
2021/07/23 11:50:18;;;;;;;;;;;;;;;32.80;39.98;99133.09;4938516;28;19914;-66
2021/07/23 11:52:44;;;;;;;;;;;;;;;31.38;37.67;99121.69;4943399;28;19926;-65
2021/07/23 11:55:10;;;;;;;;;;;;;;;31.32;39.49;99117.94;4937335;28;19921;-66
2021/07/23 11:57:37;;;;;;;;;;;;;;;31.86;36.11;99124.91;4963810;28;20408;-65
2021/07/23 12:00:03;;;;;;;;;;;;;;;32.00;37.18;99115.28;4939771;28;19914;-66
2021/07/23 12:02:29;;;;;;;;;;;;;;;32.67;37.86;99116.97;4963951;28;19950;-65
2021/07/23 12:05:02;;;;;;;;;;;;;;;34.50;36.55;99112.53;4939501;28;20009;-65
2021/07/23 12:07:27;;;;;;;;;;;;;;;32.95;31.73;99105.53;4946333;28;19961;-65
2021/07/23 12:09:52;;;;;;;;;;;;;;;30.05;33.47;99103.22;4939113;28;19919;-65
2021/07/23 12:12:19;;;;;;;;;;;;;;;33.25;38.70;99099.03;4932437;28;19914;-65
2021/07/23 12:14:44;;;;;;;;;;;;;;;33.47;31.73;99091.81;4943595;29;20466;-65
2021/07/23 12:17:10;;;;;;;;;;;;;;;33.56;34.42;99089.84;4947293;28;19946;-65
2021/07/23 12:19:35;;;;;;;;;;;;;;;29.79;35.73;99083.06;4949340;28;19925;-65
2021/07/23 12:22:07;;;;;;;;;;;;;;;32.44;36.46;99091.25;4945730;28;19915;-65
2021/07/23 12:24:33;;;;;;;;;;;;;;;33.10;34.49;99082.31;4945642;28;19921;-65
2021/07/23 12:27:12;;;;;;;;;;;;;;;28.11;40.53;99092.16;4935021;28;20566;-65
2021/07/23 12:29:38;;;;;;;;;;;;;;;31.16;40.13;99080.84;4947321;28;19915;-65
2021/07/23 12:32:19;;;;;;;;;;;;;;;32.94;37.71;99079.88;4936481;28;19918;-65
2021/07/23 12:34:53;;;;;;;;;;;;;;;34.55;31.81;99073.44;4949158;28;20428;-66
2021/07/23 12:37:18;;;;;;;;;;;;;;;33.75;34.57;99072.28;4942686;28;19923;-65
2021/07/23 12:39:50;;;;;;;;;;;;;;;34.67;30.37;99065.69;4943579;28;19921;-65
2021/07/23 12:42:16;;;;;;;;;;;;;;;32.99;34.68;99066.78;4934840;28;20365;-65
2021/07/23 12:44:42;;;;;;;;;;;;;;;33.50;35.47;99061.22;4945924;28;20021;-65